Time;durP1;ratioP1;P1;durP2;ratioP2;P2;SDS_P1;SDS_P2;PMS_P1;PMS_P2;Temp;Humidity;BMP_temperature;BMP_pressure;BME280_temperature;BME280_humidity;BME280_pressure;Samples;Min_cycle;Max_cycle;Signal;HPM_P1;HPM_P2
2021/07/23 00:01:09;;;;;;;13.85;7.87;;;;;;;19.69;70.65;100956.13;1735945;82;25921;-76
2021/07/23 00:03:38;;;;;;;9.35;6.80;;;;;;;19.68;70.83;100951.73;1711475;81;25955;-76
2021/07/23 00:06:05;;;;;;;11.97;7.40;;;;;;;19.67;70.98;100951.45;1682505;81;28347;-76
2021/07/23 00:08:32;;;;;;;12.60;7.95;;;;;;;19.65;71.02;100953.03;1695661;80;25524;-77
2021/07/23 00:10:59;;;;;;;9.95;7.33;;;;;;;19.63;71.24;100944.84;1751776;80;25746;-76
2021/07/23 00:13:26;;;;;;;12.35;7.65;;;;;;;19.60;71.29;100947.50;1689536;83;26560;-76
2021/07/23 00:15:53;;;;;;;11.22;7.05;;;;;;;19.57;71.60;100948.48;1681454;80;25801;-76
2021/07/23 00:18:20;;;;;;;11.05;7.25;;;;;;;19.54;71.92;100947.62;1725948;81;27618;-76
2021/07/23 00:20:47;;;;;;;10.23;7.08;;;;;;;19.53;72.08;100945.95;1747818;80;25713;-76
2021/07/23 00:23:15;;;;;;;12.47;7.78;;;;;;;19.53;72.12;100945.42;1704910;81;25894;-77
2021/07/23 00:25:42;;;;;;;9.85;7.17;;;;;;;19.53;72.12;100941.35;1672009;81;26494;-76
2021/07/23 00:28:09;;;;;;;11.20;7.40;;;;;;;19.53;72.32;100944.59;1661580;81;25903;-76
2021/07/23 00:30:36;;;;;;;12.43;7.45;;;;;;;19.52;72.25;100942.95;1732338;81;27464;-77
2021/07/23 00:33:04;;;;;;;12.35;7.35;;;;;;;19.50;72.43;100945.09;1697519;81;25970;-76
2021/07/23 00:35:31;;;;;;;9.15;6.55;;;;;;;19.45;72.59;100940.88;1729537;81;26539;-76
2021/07/23 00:37:58;;;;;;;15.38;8.05;;;;;;;19.41;72.91;100949.21;1719606;80;26007;-76
2021/07/23 00:40:25;;;;;;;11.40;7.78;;;;;;;19.39;72.91;100948.63;1753474;80;25866;-76
2021/07/23 00:42:52;;;;;;;11.88;8.13;;;;;;;19.39;73.00;100952.70;1715373;81;27499;-76
2021/07/23 00:45:20;;;;;;;10.85;8.03;;;;;;;19.39;73.15;100953.53;1695269;81;25944;-76
2021/07/23 00:47:53;;;;;;;11.38;8.03;;;;;;;19.38;73.26;100951.86;1723615;81;25794;-76
2021/07/23 00:50:21;;;;;;;12.40;8.63;;;;;;;19.37;73.54;100948.87;1710753;81;25911;-76
2021/07/23 00:52:49;;;;;;;11.83;8.28;;;;;;;19.36;73.38;100949.91;1720449;80;26025;-76
2021/07/23 00:55:17;;;;;;;11.60;8.25;;;;;;;19.38;73.33;100950.50;1727072;80;27455;-77
2021/07/23 00:57:46;;;;;;;9.40;7.83;;;;;;;19.38;73.21;100949.15;1698463;81;25878;-76
2021/07/23 01:00:14;;;;;;;13.35;8.48;;;;;;;19.37;73.23;100941.24;1749923;80;25714;-76
2021/07/23 01:02:48;;;;;;;13.10;8.25;;;;;;;19.37;73.29;100941.24;1725346;80;25973;-76
2021/07/23 01:05:15;;;;;;;11.15;7.97;;;;;;;19.35;73.38;100946.09;1729669;81;25688;-76
2021/07/23 01:07:43;;;;;;;14.63;7.58;;;;;;;19.35;73.50;100941.48;1718229;81;27619;-77
2021/07/23 01:10:11;;;;;;;11.22;8.55;;;;;;;19.33;73.55;100940.87;1711516;81;25994;-76
2021/07/23 01:12:51;;;;;;;10.35;8.08;;;;;;;19.33;73.70;100945.47;1723874;80;25984;-76
2021/07/23 01:15:18;;;;;;;13.95;8.35;;;;;;;19.32;73.80;100940.55;1703528;81;25890;-76
2021/07/23 01:17:46;;;;;;;11.85;7.17;;;;;;;19.29;74.19;100937.49;1697026;80;25801;-76
2021/07/23 01:20:17;;;;;;;11.80;8.23;;;;;;;19.27;74.30;100938.27;1738923;81;28236;-76
2021/07/23 01:22:45;;;;;;;12.25;8.83;;;;;;;19.25;74.48;100934.41;1693539;81;25766;-76
2021/07/23 01:25:14;;;;;;;11.05;7.67;;;;;;;19.27;74.39;100935.55;1698319;81;25849;-77
2021/07/23 01:27:47;;;;;;;10.10;8.20;;;;;;;19.25;74.24;100933.88;1728705;80;25830;-77
2021/07/23 01:30:15;;;;;;;13.53;8.03;;;;;;;19.25;74.29;100940.66;1735881;81;25868;-77
2021/07/23 01:32:43;;;;;;;15.45;8.60;;;;;;;19.25;74.50;100932.52;1725250;81;27562;-76
2021/07/23 01:35:13;;;;;;;15.53;8.40;;;;;;;19.25;74.38;100928.97;1695193;81;25826;-76
2021/07/23 01:37:42;;;;;;;14.85;8.58;;;;;;;19.25;74.47;100929.80;1721012;80;25796;-76
2021/07/23 01:40:10;;;;;;;12.43;8.60;;;;;;;19.26;74.52;100929.28;1754513;80;25944;-76
2021/07/23 01:42:40;;;;;;;12.28;8.08;;;;;;;19.24;74.50;100922.73;1725952;81;25705;-76
2021/07/23 01:45:09;;;;;;;13.48;8.88;;;;;;;19.24;74.54;100926.81;1720647;81;27473;-76
2021/07/23 01:47:36;;;;;;;12.78;8.30;;;;;;;19.22;74.58;100923.47;1708641;82;25527;-76
2021/07/23 01:50:07;;;;;;;13.93;8.55;;;;;;;19.24;74.68;100920.54;1728317;81;25867;-77
2021/07/23 01:52:34;;;;;;;13.68;8.50;;;;;;;19.22;74.72;100919.95;1717323;81;26380;-76
2021/07/23 01:55:04;;;;;;;9.20;7.83;;;;;;;19.20;74.88;100928.31;1692792;81;26282;-76
2021/07/23 01:57:34;;;;;;;11.83;8.20;;;;;;;19.18;74.97;100920.12;1714811;81;27578;-77
2021/07/23 02:00:05;;;;;;;10.50;8.13;;;;;;;19.17;75.09;100919.82;1753074;80;25803;-76
2021/07/23 02:02:34;;;;;;;10.93;7.85;;;;;;;19.18;75.29;100922.84;1708106;82;25925;-76
2021/07/23 02:05:03;;;;;;;16.77;8.05;;;;;;;19.15;75.37;100921.42;1681965;82;26537;-76
2021/07/23 02:07:31;;;;;;;13.68;8.15;;;;;;;19.13;75.30;100922.19;1707567;81;25590;-76
2021/07/23 02:10:00;;;;;;;15.18;8.75;;;;;;;19.12;75.37;100917.80;1735548;81;27646;-76
2021/07/23 02:12:27;;;;;;;13.43;8.90;;;;;;;19.10;75.43;100915.86;1715954;81;26091;-76
2021/07/23 02:15:05;;;;;;;12.40;8.65;;;;;;;19.09;75.62;100912.03;1705548;81;25961;-76
2021/07/23 02:17:33;;;;;;;;;;;;;;;19.09;75.82;100912.03;1713168;81;25945;-76
2021/07/23 02:20:01;;;;;;;9.90;7.60;;;;;;;19.06;76.00;100909.77;1738746;81;25872;-76
2021/07/23 02:22:30;;;;;;;12.10;8.60;;;;;;;19.03;76.22;100907.54;1705848;82;27705;-76
2021/07/23 02:24:57;;;;;;;16.80;8.25;;;;;;;19.03;76.29;100911.06;1690950;81;26324;-76
2021/07/23 02:27:25;;;;;;;10.28;8.45;;;;;;;19.03;76.31;100909.70;1708161;82;25783;-76
2021/07/23 02:29:53;;;;;;;12.70;9.40;;;;;;;19.02;76.33;100903.99;1709738;82;25817;-77
2021/07/23 02:32:22;;;;;;;13.05;9.08;;;;;;;19.02;76.55;100899.91;1683002;81;26032;-76
2021/07/23 02:34:49;;;;;;;16.73;9.50;;;;;;;19.01;76.48;100906.39;1708786;81;27538;-76
2021/07/23 02:37:16;;;;;;;14.38;9.23;;;;;;;18.99;76.53;100911.23;1691946;80;26687;-76
2021/07/23 02:39:45;;;;;;;15.10;10.10;;;;;;;18.96;76.47;100902.22;1731329;81;25859;-77
2021/07/23 02:42:12;;;;;;;12.80;9.38;;;;;;;18.94;76.55;100907.05;1657217;82;25973;-76
2021/07/23 02:44:41;;;;;;;14.35;10.50;;;;;;;18.95;76.61;100911.41;1695876;81;25359;-76
2021/07/23 02:47:09;;;;;;;12.85;10.20;;;;;;;18.95;76.66;100900.55;1706512;81;28439;-76
2021/07/23 02:49:37;;;;;;;13.13;9.33;;;;;;;18.95;76.73;100906.50;1732322;81;25855;-76
2021/07/23 02:52:04;;;;;;;12.78;9.00;;;;;;;18.95;76.82;100911.41;1717587;81;26718;-77
2021/07/23 02:54:32;;;;;;;16.17;9.23;;;;;;;18.94;76.91;100907.05;1674291;80;25956;-76
2021/07/23 02:56:59;;;;;;;13.32;9.40;;;;;;;18.94;76.89;100913.01;1763507;80;25686;-77
2021/07/23 02:59:28;;;;;;;11.85;9.00;;;;;;;18.90;76.88;100914.54;1745270;81;27692;-76
2021/07/23 03:01:56;;;;;;;12.80;8.60;;;;;;;18.86;77.02;100909.28;1694096;81;25920;-76
2021/07/23 03:04:24;;;;;;;11.57;8.65;;;;;;;18.85;77.12;100904.38;1678801;81;26572;-76
2021/07/23 03:06:53;;;;;;;12.47;9.30;;;;;;;18.86;77.18;100916.88;1717255;81;26542;-76
2021/07/23 03:09:20;;;;;;;11.90;9.48;;;;;;;18.85;77.29;100907.09;1710272;82;25774;-77
2021/07/23 03:11:48;;;;;;;12.23;9.28;;;;;;;18.85;77.34;100907.09;1727544;81;27622;-76
2021/07/23 03:14:15;;;;;;;13.13;9.80;;;;;;;18.83;77.42;100908.37;1682946;81;25990;-76
2021/07/23 03:16:44;;;;;;;13.45;9.35;;;;;;;18.84;77.40;100905.98;1724896;82;25834;-77
2021/07/23 03:19:12;;;;;;;17.23;9.65;;;;;;;18.84;77.47;100910.84;1719745;80;25885;-76
2021/07/23 03:21:40;;;;;;;14.70;10.00;;;;;;;18.86;77.37;100909.28;1702844;80;25375;-76
2021/07/23 03:24:09;;;;;;;12.60;9.45;;;;;;;18.86;77.28;100903.30;1708764;80;27360;-77
2021/07/23 03:26:36;;;;;;;17.10;10.50;;;;;;;18.87;77.36;100902.78;1709945;82;26551;-76
2021/07/23 03:29:05;;;;;;;16.52;10.08;;;;;;;18.87;77.43;100901.42;1708893;81;26011;-77
2021/07/23 03:31:34;;;;;;;14.33;9.53;;;;;;;18.89;77.42;100902.02;1684086;82;26497;-76
2021/07/23 03:34:02;;;;;;;14.80;10.32;;;;;;;18.87;77.37;100906.33;1675499;81;25605;-76
2021/07/23 03:36:43;;;;;;;;;;;;;;;18.88;77.43;100901.17;1691455;82;28310;-76
2021/07/23 03:39:12;;;;;;;12.53;9.28;;;;;;;18.89;77.58;100899.30;1744655;80;26642;-76
2021/07/23 03:41:42;;;;;;;14.00;9.83;;;;;;;18.90;77.58;100905.04;1704788;81;25962;-76
2021/07/23 03:44:10;;;;;;;15.03;9.05;;;;;;;18.91;77.66;100898.01;1740707;81;25850;-76
2021/07/23 03:46:38;;;;;;;14.25;10.40;;;;;;;18.92;77.95;100902.91;1733147;81;25827;-76
2021/07/23 03:49:05;;;;;;;12.07;9.88;;;;;;;18.93;77.80;100900.48;1672674;83;28560;-76
2021/07/23 03:51:37;;;;;;;13.60;9.90;;;;;;;18.92;77.65;100903.75;1702831;81;25892;-76
2021/07/23 03:54:04;;;;;;;13.58;9.60;;;;;;;18.92;77.89;100898.32;1733133;81;26515;-76
2021/07/23 03:56:32;;;;;;;16.50;10.32;;;;;;;18.94;78.01;100901.63;1718001;80;25846;-76
2021/07/23 03:58:59;;;;;;;16.48;11.78;;;;;;;18.96;77.97;100902.22;1702622;80;25869;-76
2021/07/23 04:01:45;;;;;;;17.23;11.88;;;;;;;18.98;77.86;100900.62;1700874;80;27356;-77
2021/07/23 04:04:13;;;;;;;15.80;11.65;;;;;;;18.97;77.68;100900.30;1751331;80;25603;-76
2021/07/23 04:06:41;;;;;;;17.52;12.30;;;;;;;18.98;77.81;100903.33;1752996;80;25737;-76
2021/07/23 04:09:08;;;;;;;18.32;11.93;;;;;;;18.99;77.82;100898.22;1718398;80;25911;-77
2021/07/23 04:11:47;;;;;;;13.30;9.15;;;;;;;19.00;77.96;100898.49;1703644;80;25996;-77
2021/07/23 04:14:06;;;;;;;14.03;9.08;;;;;;;18.99;78.47;100899.57;1756262;80;27575;-76
2021/07/23 04:16:33;;;;;;;12.70;7.95;;;;;;;18.99;78.61;100902.28;1738037;81;26099;-76
2021/07/23 04:19:00;;;;;;;10.38;8.70;;;;;;;18.96;78.68;100893.23;1696849;81;25873;-77
2021/07/23 04:21:29;;;;;;;10.85;8.13;;;;;;;18.94;78.88;100897.55;1684940;83;25854;-77
2021/07/23 04:23:57;;;;;;;14.47;8.70;;;;;;;18.94;79.04;100888.05;1711764;82;25731;-77
2021/07/23 04:26:24;;;;;;;12.55;8.65;;;;;;;18.97;79.27;100893.52;1748746;80;28244;-77
2021/07/23 04:28:51;;;;;;;12.53;9.45;;;;;;;18.99;79.44;100894.94;1721126;80;25870;-77
2021/07/23 04:31:18;;;;;;;17.37;10.05;;;;;;;19.02;79.62;100890.41;1697650;80;25778;-76
2021/07/23 04:33:50;;;;;;;11.25;8.10;;;;;;;19.04;79.26;100891.53;1714313;81;25904;-77
2021/07/23 04:36:35;;;;;;;10.35;8.25;;;;;;;19.09;79.67;100891.66;1727200;81;25920;-76
2021/07/23 04:39:20;;;;;;;13.22;9.13;;;;;;;19.11;79.70;100886.82;1733510;81;28347;-76
2021/07/23 04:41:49;;;;;;;12.13;9.83;;;;;;;19.13;79.77;100887.41;1694962;81;25846;-76
2021/07/23 04:44:16;;;;;;;13.05;10.48;;;;;;;19.17;79.67;100888.59;1741936;81;26434;-76
2021/07/23 04:46:44;;;;;;;17.60;11.12;;;;;;;19.19;79.50;100885.94;1744716;81;25926;-76
2021/07/23 04:49:11;;;;;;;16.10;11.03;;;;;;;19.21;79.13;100890.59;1679072;81;25810;-76
2021/07/23 04:51:40;;;;;;;19.73;11.18;;;;;;;19.25;79.05;100882.80;1694230;81;27421;-76
2021/07/23 04:54:26;;;;;;;18.32;11.48;;;;;;;19.31;78.85;100879.12;1748812;80;25884;-76
2021/07/23 04:56:59;;;;;;;17.15;11.30;;;;;;;19.35;78.71;100879.01;1751717;80;25893;-76
2021/07/23 04:59:27;;;;;;;17.17;12.28;;;;;;;19.41;78.62;100878.58;1707244;80;26038;-77
2021/07/23 05:01:54;;;;;;;25.20;14.38;;;;;;;19.45;78.28;100876.51;1692919;81;25949;-77
2021/07/23 05:04:21;;;;;;;17.37;12.80;;;;;;;19.49;78.17;100876.33;1755158;80;27580;-77
2021/07/23 05:06:48;;;;;;;15.65;11.08;;;;;;;19.54;78.01;100875.09;1751141;80;26504;-77
2021/07/23 05:09:15;;;;;;;17.17;11.68;;;;;;;19.57;77.51;100879.19;1683962;81;25792;-76
2021/07/23 05:11:44;;;;;;;20.80;12.73;;;;;;;19.60;77.42;100877.37;1685971;82;26669;-77
2021/07/23 05:14:11;;;;;;;15.50;10.95;;;;;;;19.64;77.25;100876.66;1704004;82;25809;-77
2021/07/23 05:16:39;;;;;;;22.10;13.78;;;;;;;19.69;77.33;100878.66;1737173;81;27971;-77
2021/07/23 05:19:07;;;;;;;21.95;16.27;;;;;;;19.72;77.25;100880.88;1691230;81;25771;-77
2021/07/23 05:21:35;;;;;;;37.67;26.85;;;;;;;19.78;77.20;100875.31;1679021;82;26124;-77
2021/07/23 05:24:04;;;;;;;29.65;21.48;;;;;;;19.84;77.17;100876.27;1724941;81;26600;-77
2021/07/23 05:26:38;;;;;;;23.80;18.25;;;;;;;19.88;76.64;100876.91;1727115;81;26045;-77
2021/07/23 05:29:08;;;;;;;17.30;13.18;;;;;;;19.92;76.82;100875.35;1699528;81;27587;-77
2021/07/23 05:31:39;;;;;;;17.47;12.83;;;;;;;19.98;76.88;100873.02;1700696;80;25926;-76
2021/07/23 05:34:05;;;;;;;17.98;12.70;;;;;;;20.07;77.07;100869.39;1753698;80;30642;-77
2021/07/23 05:36:32;;;;;;;16.55;11.75;;;;;;;20.12;76.87;100866.78;1716273;81;26546;-77
2021/07/23 05:38:59;;;;;;;15.05;11.28;;;;;;;20.18;76.72;100870.41;1677393;81;25872;-77
2021/07/23 05:41:26;;;;;;;19.55;11.60;;;;;;;20.22;76.67;100871.08;1695472;80;28122;-77
2021/07/23 05:43:53;;;;;;;13.72;11.12;;;;;;;20.26;76.34;100872.23;1723147;81;25338;-77
2021/07/23 05:46:20;;;;;;;17.50;11.33;;;;;;;20.30;76.34;100871.20;1712203;82;25926;-77
2021/07/23 05:48:47;;;;;;;16.87;11.10;;;;;;;20.35;75.91;100868.59;1657790;82;25952;-77
2021/07/23 05:51:15;;;;;;;13.90;10.65;;;;;;;20.39;75.81;100869.75;1690001;82;25958;-77
2021/07/23 05:53:42;;;;;;;18.55;10.82;;;;;;;20.44;75.73;100863.88;1736375;82;27549;-77
2021/07/23 05:56:09;;;;;;;15.35;10.63;;;;;;;20.51;75.68;100862.34;1735329;82;26498;-77
2021/07/23 05:58:36;;;;;;;14.90;10.75;;;;;;;20.56;75.09;100864.63;1656995;82;25810;-76
2021/07/23 06:01:07;;;;;;;15.35;11.85;;;;;;;20.60;74.29;100871.23;1686943;82;26419;-77
2021/07/23 06:03:35;;;;;;;16.30;11.55;;;;;;;20.64;74.24;100873.75;1737484;82;25796;-79
2021/07/23 06:06:03;;;;;;;17.57;11.15;;;;;;;20.67;74.33;100862.38;1729306;82;28308;-77
2021/07/23 06:08:30;;;;;;;16.77;11.55;;;;;;;20.73;73.68;100870.08;1687792;82;25348;-77
2021/07/23 06:11:06;;;;;;;16.87;10.88;;;;;;;20.80;73.56;100868.56;1689279;82;25861;-77
2021/07/23 06:13:38;;;;;;;14.68;11.33;;;;;;;20.93;73.82;100869.07;1731573;82;26510;-76
2021/07/23 06:16:09;;;;;;;14.00;9.93;;;;;;;21.06;72.92;100865.21;1731924;82;25855;-76
2021/07/23 06:18:36;;;;;;;19.70;11.00;;;;;;;21.15;73.13;100861.80;1682834;82;27585;-77
2021/07/23 06:21:03;;;;;;;14.75;10.43;;;;;;;21.26;72.81;100861.41;1686148;82;25929;-77
2021/07/23 06:23:30;;;;;;;15.50;10.10;;;;;;;21.31;72.19;100861.50;1663467;82;25984;-77
2021/07/23 06:25:57;;;;;;;15.32;10.35;;;;;;;21.39;71.93;100856.44;1735691;82;25772;-77
2021/07/23 06:28:24;;;;;;;14.20;9.90;;;;;;;21.53;71.17;100865.89;1662338;82;25933;-77
2021/07/23 06:30:55;;;;;;;14.05;10.48;;;;;;;21.61;70.20;100863.81;1734568;82;27452;-77
2021/07/23 06:33:22;;;;;;;;;;;;;;;21.68;70.47;100859.84;1717342;82;26225;-77
2021/07/23 06:35:49;;;;;;;12.82;9.55;;;;;;;21.78;70.45;100858.60;1682103;82;25813;-77
2021/07/23 06:38:16;;;;;;;15.53;9.68;;;;;;;21.85;70.02;100863.89;1716036;81;26506;-77
2021/07/23 06:40:43;;;;;;;14.25;9.58;;;;;;;21.95;69.83;100859.92;1721489;81;25801;-77
2021/07/23 06:43:10;;;;;;;16.12;9.75;;;;;;;22.05;70.28;100858.13;1677318;82;28039;-77
2021/07/23 06:45:37;;;;;;;11.88;10.25;;;;;;;22.20;69.88;100862.92;1698564;81;25402;-77
2021/07/23 06:48:04;;;;;;;12.70;9.40;;;;;;;22.24;68.42;100862.69;1707029;81;26673;-77
2021/07/23 06:50:34;;;;;;;15.05;9.63;;;;;;;22.33;69.14;100860.33;1730739;81;25897;-77
2021/07/23 06:53:04;;;;;;;12.53;10.03;;;;;;;22.48;68.42;100861.31;1683244;81;25795;-77
2021/07/23 06:55:31;;;;;;;14.83;9.33;;;;;;;22.65;68.52;100865.31;1693818;82;28172;-77
2021/07/23 06:57:59;;;;;;;13.80;10.23;;;;;;;22.78;67.80;100864.89;1711347;81;26258;-77
2021/07/23 07:00:26;;;;;;;16.40;9.43;;;;;;;22.88;66.22;100863.63;1723884;81;25891;-77
2021/07/23 07:02:53;;;;;;;13.83;9.03;;;;;;;22.99;66.90;100862.59;1676997;80;26444;-77
2021/07/23 07:05:21;;;;;;;15.10;10.13;;;;;;;23.07;66.75;100855.30;1707910;81;25949;-77
2021/07/23 07:07:48;;;;;;;13.40;9.38;;;;;;;23.15;66.17;100858.90;1742228;81;27604;-77
2021/07/23 07:10:15;;;;;;;17.50;11.22;;;;;;;23.18;66.26;100859.72;1735613;81;25834;-77
2021/07/23 07:12:42;;;;;;;14.28;10.05;;;;;;;23.21;65.37;100857.02;1703014;81;25842;-77
2021/07/23 07:15:11;;;;;;;12.70;9.63;;;;;;;23.18;65.81;100854.25;1683305;81;25874;-77
2021/07/23 07:17:38;;;;;;;11.75;9.33;;;;;;;23.19;66.02;100855.09;1705499;81;25899;-77
2021/07/23 07:20:06;;;;;;;12.95;8.93;;;;;;;23.13;65.83;100856.98;1740895;81;27455;-77
2021/07/23 07:22:33;;;;;;;13.18;10.00;;;;;;;23.07;66.19;100862.66;1705134;80;25915;-77
2021/07/23 07:25:01;;;;;;;12.68;9.03;;;;;;;23.00;65.74;100858.79;1699931;80;25777;-77
2021/07/23 07:27:28;;;;;;;16.30;9.95;;;;;;;22.93;66.07;100856.28;1711743;80;25773;-77
2021/07/23 07:29:55;;;;;;;12.30;9.18;;;;;;;22.88;66.33;100855.42;1722250;81;25774;-77
2021/07/23 07:32:22;;;;;;;13.15;9.73;;;;;;;22.86;66.36;100850.77;1695534;81;27973;-77
2021/07/23 07:34:49;;;;;;;16.37;10.43;;;;;;;22.86;67.24;100858.40;1711672;81;25891;-77
2021/07/23 07:37:16;;;;;;;14.43;9.75;;;;;;;22.87;66.10;100851.03;1711385;82;26679;-77
2021/07/23 07:39:43;;;;;;;15.32;9.55;;;;;;;22.87;66.16;100853.23;1730070;81;26497;-77
2021/07/23 07:42:11;;;;;;;15.32;10.82;;;;;;;22.87;65.57;100851.03;1666024;81;25339;-78
2021/07/23 07:44:38;;;;;;;16.67;10.38;;;;;;;22.88;65.71;100844.50;1694249;82;28175;-77
2021/07/23 07:47:05;;;;;;;15.45;9.95;;;;;;;22.89;66.04;100846.96;1698320;81;26061;-77
2021/07/23 07:49:32;;;;;;;12.45;10.08;;;;;;;22.93;65.12;100846.72;1754339;80;26446;-77
2021/07/23 07:51:59;;;;;;;13.30;10.28;;;;;;;22.91;65.03;100845.33;1684251;82;26385;-77
2021/07/23 07:54:27;;;;;;;12.07;9.58;;;;;;;22.91;64.86;100845.33;1706235;82;25946;-78
2021/07/23 07:56:57;;;;;;;13.43;9.68;;;;;;;22.95;64.66;100849.18;1720137;81;26947;-78
2021/07/23 07:59:23;;;;;;;13.98;10.40;;;;;;;23.06;64.80;100850.08;1751683;80;25774;-77
2021/07/23 08:01:51;;;;;;;11.80;8.80;;;;;;;23.19;64.15;100844.98;1696476;81;25954;-77
2021/07/23 08:04:18;;;;;;;13.38;9.18;;;;;;;23.32;64.32;100852.72;1724846;80;26384;-77
2021/07/23 08:06:45;;;;;;;11.40;9.30;;;;;;;23.44;63.09;100845.16;1723059;80;26078;-77
2021/07/23 08:09:14;;;;;;;13.45;9.68;;;;;;;23.55;64.47;100843.30;1698194;83;27490;-77
2021/07/23 08:11:41;;;;;;;12.55;9.50;;;;;;;23.71;64.02;100847.77;1697070;81;26031;-76
2021/07/23 08:14:08;;;;;;;12.58;9.03;;;;;;;23.84;63.09;100847.81;1706131;82;25939;-78
2021/07/23 08:16:35;;;;;;;11.65;7.87;;;;;;;23.87;62.34;100853.56;1709942;82;25945;-78
2021/07/23 08:19:04;;;;;;;12.10;8.08;;;;;;;23.94;62.26;100855.52;1735828;81;26079;-78
2021/07/23 08:21:33;;;;;;;11.00;7.90;;;;;;;24.04;61.46;100853.34;1698198;80;28019;-79
2021/07/23 08:24:02;;;;;;;11.68;8.90;;;;;;;24.12;60.62;100854.23;1703976;81;25983;-79
2021/07/23 08:26:29;;;;;;;14.90;7.80;;;;;;;24.21;60.16;100853.97;1724506;81;25858;-79
2021/07/23 08:28:56;;;;;;;11.57;7.95;;;;;;;24.30;60.38;100856.45;1753600;80;25839;-79
2021/07/23 08:31:23;;;;;;;14.00;7.78;;;;;;;24.39;59.39;100851.56;1665101;81;25976;-79
2021/07/23 08:33:50;;;;;;;11.55;8.58;;;;;;;24.42;58.70;100848.83;1716179;81;27572;-79
2021/07/23 08:36:17;;;;;;;10.95;8.23;;;;;;;24.43;59.07;100849.09;1729733;81;26305;-80
2021/07/23 08:38:44;;;;;;;12.60;8.90;;;;;;;24.47;59.50;100852.39;1722709;80;25858;-79
2021/07/23 08:41:12;;;;;;;15.03;10.88;;;;;;;24.47;57.50;100850.19;1705471;81;25807;-79
2021/07/23 08:43:39;;;;;;;12.58;8.95;;;;;;;24.45;58.74;100841.42;1713269;81;25862;-78
2021/07/23 08:46:08;;;;;;;12.65;8.45;;;;;;;24.53;59.49;100838.14;1688917;82;27617;-80
2021/07/23 08:48:35;;;;;;;20.25;11.35;;;;;;;24.63;59.17;100842.81;1728051;81;25941;-80
2021/07/23 08:51:02;;;;;;;12.65;8.08;;;;;;;24.72;59.15;100839.81;1659850;83;26702;-80
2021/07/23 08:53:29;;;;;;;10.05;7.50;;;;;;;24.76;58.14;100836.83;1722254;80;26547;-79
2021/07/23 08:55:56;;;;;;;10.23;8.10;;;;;;;24.81;57.59;100840.37;1731370;81;25881;-80
2021/07/23 08:58:23;;;;;;;14.53;10.15;;;;;;;24.82;56.97;100837.09;1742618;81;27490;-80
2021/07/23 09:00:58;;;;;;;10.85;8.78;;;;;;;24.80;56.16;100835.17;1660609;82;25852;-80
2021/07/23 09:03:31;;;;;;;11.70;8.28;;;;;;;24.82;56.85;100838.46;1663844;81;25956;-79
2021/07/23 09:05:57;;;;;;;10.72;8.05;;;;;;;24.84;56.28;100838.47;1736628;81;25858;-80
2021/07/23 09:08:24;;;;;;;8.25;6.83;;;;;;;24.87;56.77;100837.90;1742556;81;25905;-79
2021/07/23 09:11:06;;;;;;;11.22;8.05;;;;;;;24.96;56.65;100832.69;1672332;80;27689;-80
2021/07/23 09:13:33;;;;;;;11.40;7.58;;;;;;;24.98;56.15;100828.58;1716563;81;26521;-79
2021/07/23 09:16:00;;;;;;;12.33;7.87;;;;;;;25.00;56.28;100830.48;1709631;82;25771;-80
2021/07/23 09:18:36;;;;;;;11.75;7.33;;;;;;;25.05;55.63;100828.30;1730579;81;26560;-79
2021/07/23 09:21:01;;;;;;;12.82;8.53;;;;;;;25.08;55.83;100829.95;1672567;81;25903;-80
2021/07/23 09:23:40;;;;;;;11.35;7.95;;;;;;;25.05;54.07;100829.66;1686876;80;27525;-80
2021/07/23 09:26:15;;;;;;;12.37;7.95;;;;;;;25.01;55.11;100834.89;1728015;81;25795;-79
2021/07/23 09:28:47;;;;;;;9.63;6.67;;;;;;;25.02;55.25;100831.61;1744943;81;25777;-80
2021/07/23 09:31:29;;;;;;;7.62;5.75;;;;;;;25.11;53.68;100824.44;1686699;81;26106;-80
2021/07/23 09:33:58;;;;;;;6.78;5.12;;;;;;;25.13;53.29;100820.88;1674829;83;25909;-80
2021/07/23 09:36:25;;;;;;;7.97;5.28;;;;;;;25.13;52.25;100822.24;1706201;82;33064;-81
2021/07/23 09:39:03;;;;;;;8.38;5.12;;;;;;;25.06;52.04;100823.90;1748221;80;26013;-79
2021/07/23 09:41:30;;;;;;;8.10;5.83;;;;;;;24.99;51.87;100825.30;1716485;80;25910;-79
2021/07/23 09:44:02;;;;;;;6.90;5.47;;;;;;;24.89;50.56;100833.53;1712252;82;26514;-80
2021/07/23 09:46:34;;;;;;;7.85;6.22;;;;;;;24.79;49.93;100824.75;1711631;81;26435;-79
2021/07/23 09:49:28;;;;;;;6.33;5.58;;;;;;;24.74;50.58;100827.52;1738042;81;27486;-80
2021/07/23 09:52:02;;;;;;;7.47;5.42;;;;;;;24.73;51.23;100831.84;1684892;81;25793;-79
2021/07/23 09:54:29;;;;;;;8.65;6.55;;;;;;;24.67;52.47;100830.21;1679699;81;25817;-80
2021/07/23 09:56:56;;;;;;;9.80;6.47;;;;;;;24.66;52.46;100825.84;1699474;82;25810;-79
2021/07/23 09:59:55;;;;;;;13.15;6.58;;;;;;;24.63;52.32;100821.73;1728454;81;26136;-79
2021/07/23 10:02:23;;;;;;;9.73;7.42;;;;;;;24.56;52.10;100818.43;1720893;81;28227;-80
2021/07/23 10:05:01;;;;;;;10.53;7.80;;;;;;;24.49;53.27;100824.18;1698762;80;26671;-80
2021/07/23 10:07:36;;;;;;;11.85;7.70;;;;;;;24.52;53.41;100826.92;1756345;80;25315;-80
2021/07/23 10:10:07;;;;;;;9.83;7.25;;;;;;;24.43;52.55;100819.80;1708276;81;25807;-79
2021/07/23 10:12:38;;;;;;;12.33;7.72;;;;;;;24.36;54.22;100817.86;1747736;80;26022;-79
2021/07/23 10:15:06;;;;;;;12.33;8.15;;;;;;;24.40;54.31;100816.22;1691944;81;28563;-80
2021/07/23 10:17:35;;;;;;;9.83;8.08;;;;;;;24.40;54.42;100818.16;1746950;80;26014;-80
2021/07/23 10:20:04;;;;;;;9.40;7.35;;;;;;;24.38;54.11;100821.15;1696638;81;25862;-79
2021/07/23 10:22:31;;;;;;;12.95;8.70;;;;;;;24.41;54.88;100819.79;1691950;81;25913;-80
2021/07/23 10:24:59;;;;;;;13.95;7.85;;;;;;;24.44;54.86;100812.41;1671893;82;25855;-79
2021/07/23 10:27:27;;;;;;;11.97;8.53;;;;;;;24.46;55.28;100811.59;1712713;83;27645;-80
2021/07/23 10:29:54;;;;;;;14.10;8.30;;;;;;;24.51;55.46;100808.83;1705842;81;25887;-79
2021/07/23 10:32:31;;;;;;;10.25;7.90;;;;;;;24.56;55.00;100805.28;1706397;82;25942;-80
2021/07/23 10:35:17;;;;;;;11.85;7.70;;;;;;;24.53;54.99;100810.75;1695556;81;26257;-80
2021/07/23 10:37:52;;;;;;;12.47;7.33;;;;;;;24.52;55.76;100809.13;1736140;81;25832;-80
2021/07/23 10:40:22;;;;;;;11.75;8.35;;;;;;;24.53;55.68;100808.01;1735088;81;27466;-79
2021/07/23 10:42:49;;;;;;;15.10;7.83;;;;;;;24.51;55.64;100799.25;1709259;81;25809;-79
2021/07/23 10:45:20;;;;;;;11.85;7.80;;;;;;;24.52;55.65;100803.64;1680698;81;25921;-80
2021/07/23 10:47:48;;;;;;;;;;;;;;;24.53;55.91;100805.84;1740060;80;25848;-80
2021/07/23 10:50:29;;;;;;;9.18;7.67;;;;;;;24.48;55.57;100797.08;1666707;83;25377;-79
2021/07/23 10:53:31;;;;;;;9.63;7.47;;;;;;;24.40;54.70;100799.80;1692560;81;56922;-80
2021/07/23 10:55:58;;;;;;;9.58;8.13;;;;;;;24.39;54.81;100794.05;1722372;80;25910;-80
2021/07/23 10:58:30;;;;;;;11.03;7.80;;;;;;;24.39;55.72;100790.48;1730361;81;25881;-80
2021/07/23 11:01:02;;;;;;;11.28;7.05;;;;;;;24.41;55.74;100794.61;1704959;81;25656;-80
2021/07/23 11:03:42;;;;;;;13.15;8.90;;;;;;;24.43;55.53;100785.56;1701091;81;25829;-79
2021/07/23 11:06:19;;;;;;;10.05;8.20;;;;;;;24.41;55.69;100785.02;1681431;81;27632;-80
2021/07/23 11:08:51;;;;;;;8.83;7.45;;;;;;;24.43;55.92;100785.56;1720255;81;25899;-79
2021/07/23 11:11:26;;;;;;;9.08;8.10;;;;;;;24.44;55.92;100785.83;1685073;81;26242;-80
2021/07/23 11:13:53;;;;;;;12.70;8.50;;;;;;;24.51;55.66;100782.27;1730730;81;26471;-81
2021/07/23 11:16:26;;;;;;;10.63;8.30;;;;;;;24.58;55.62;100779.80;1696713;81;25353;-80
2021/07/23 11:18:55;;;;;;;10.05;8.45;;;;;;;24.62;55.64;100778.98;1755090;80;27629;-79
2021/07/23 11:21:26;;;;;;;10.82;8.08;;;;;;;24.70;55.67;100773.52;1733524;80;25927;-79
2021/07/23 11:23:54;;;;;;;10.53;7.70;;;;;;;24.78;56.15;100772.44;1705679;81;26580;-80
2021/07/23 11:26:27;;;;;;;10.50;7.67;;;;;;;24.87;56.17;100774.88;1687793;81;25891;-81